createdAt,value
2022-10-05T00:00:27.572Z,9.40
2022-10-05T00:03:14.559Z,9.50
2022-10-05T00:05:42.187Z,9.50
2022-10-05T00:08:19.517Z,9.50
2022-10-05T00:10:47.017Z,9.50
2022-10-05T00:13:21.193Z,9.50
2022-10-05T00:15:49.220Z,9.50
2022-10-05T00:18:18.969Z,9.50
2022-10-05T00:20:47.403Z,9.50
2022-10-05T00:23:27.436Z,9.50
2022-10-05T00:25:54.726Z,9.50
2022-10-05T00:28:30.615Z,9.50
2022-10-05T00:30:59.248Z,9.50
2022-10-05T00:33:27.886Z,9.50
2022-10-05T00:35:55.528Z,9.50
2022-10-05T00:38:22.846Z,9.50
2022-10-05T00:41:05.547Z,9.50
2022-10-05T00:43:44.198Z,9.50
2022-10-05T00:46:27.404Z,9.50
2022-10-05T00:49:20.253Z,9.50
2022-10-05T00:52:11.472Z,9.50
2022-10-05T00:54:50.621Z,9.50
2022-10-05T00:57:33.890Z,9.50
2022-10-05T01:00:06.697Z,9.50
2022-10-05T01:02:48.046Z,9.50
2022-10-05T01:05:52.678Z,9.50
2022-10-05T01:08:41.769Z,9.50
2022-10-05T01:11:30.443Z,9.50
2022-10-05T01:14:31.443Z,9.50
2022-10-05T01:17:18.454Z,9.50
2022-10-05T01:20:03.760Z,9.50
2022-10-05T01:23:03.051Z,9.50
2022-10-05T01:25:54.322Z,9.50
2022-10-05T01:28:28.786Z,9.50
2022-10-05T01:31:15.682Z,9.50
2022-10-05T01:34:11.324Z,9.50
2022-10-05T01:36:49.093Z,9.50
2022-10-05T01:40:03.779Z,9.60
2022-10-05T01:42:58.495Z,9.60
2022-10-05T01:46:04.269Z,9.60
2022-10-05T01:48:34.336Z,9.60
2022-10-05T01:51:22.233Z,9.60
2022-10-05T01:53:59.951Z,9.60
2022-10-05T01:56:50.712Z,9.60
2022-10-05T01:59:56.812Z,9.60
2022-10-05T02:02:25.293Z,9.60
2022-10-05T02:05:14.065Z,9.60
2022-10-05T02:07:50.886Z,9.50
2022-10-05T02:10:30.672Z,9.60
2022-10-05T02:13:11.509Z,9.50
2022-10-05T02:16:03.045Z,9.50
2022-10-05T02:18:43.811Z,9.50
2022-10-05T02:21:11.090Z,9.50
2022-10-05T02:23:40.760Z,9.50
2022-10-05T02:26:11.016Z,9.40
2022-10-05T02:28:46.459Z,9.40
2022-10-05T02:31:18.081Z,9.50
2022-10-05T02:33:47.922Z,9.40
2022-10-05T02:36:29.555Z,9.40
2022-10-05T02:39:10.106Z,9.40
2022-10-05T02:41:40.719Z,9.40
2022-10-05T02:44:35.448Z,9.40
2022-10-05T02:47:14.902Z,9.40
2022-10-05T02:49:57.455Z,9.40
2022-10-05T02:52:49.844Z,9.40
2022-10-05T02:55:30.447Z,9.40
2022-10-05T02:58:09.963Z,9.40
2022-10-05T03:01:07.364Z,9.30
2022-10-05T03:03:41.733Z,9.30
2022-10-05T03:06:15.504Z,9.30
2022-10-05T03:09:03.978Z,9.30
2022-10-05T03:12:04.520Z,9.30
2022-10-05T03:15:15.876Z,9.30
2022-10-05T03:18:01.649Z,9.30
2022-10-05T03:20:50.783Z,9.30
2022-10-05T03:23:44.649Z,9.30
2022-10-05T03:26:40.666Z,9.30
2022-10-05T03:29:32.428Z,9.30
2022-10-05T03:32:23.589Z,9.30
2022-10-05T03:35:03.468Z,9.30
2022-10-05T03:38:08.061Z,9.30
2022-10-05T03:40:43.026Z,9.30
2022-10-05T03:43:38.181Z,9.30
2022-10-05T03:46:11.494Z,9.30
2022-10-05T03:48:52.465Z,9.30
2022-10-05T03:51:39.843Z,9.30
2022-10-05T03:54:17.019Z,9.30
2022-10-05T03:56:51.731Z,9.30
2022-10-05T03:59:32.609Z,9.20
2022-10-05T04:02:05.349Z,9.20
2022-10-05T04:04:42.594Z,9.20
2022-10-05T04:07:23.728Z,9.20
2022-10-05T04:09:53.168Z,9.20
2022-10-05T04:12:37.198Z,9.20
2022-10-05T04:15:18.909Z,9.20
2022-10-05T04:17:51.816Z,9.20
2022-10-05T04:20:38.321Z,9.20
2022-10-05T04:23:16.698Z,9.20
2022-10-05T04:25:53.552Z,9.20
2022-10-05T04:28:32.419Z,9.20
2022-10-05T04:31:03.152Z,9.20
2022-10-05T04:33:32.152Z,9.30
2022-10-05T04:36:11.161Z,9.30
2022-10-05T04:39:14.207Z,9.30
2022-10-05T04:42:06.325Z,9.30
2022-10-05T04:44:43.221Z,9.30
2022-10-05T04:47:18.845Z,9.30
2022-10-05T04:50:07.088Z,9.20
2022-10-05T04:53:08.952Z,9.30
2022-10-05T04:55:38.394Z,9.20
2022-10-05T04:58:42.661Z,9.20
2022-10-05T05:01:45.985Z,9.30
2022-10-05T05:04:51.470Z,9.30
2022-10-05T05:07:25.249Z,9.30
2022-10-05T05:10:15.736Z,9.30
2022-10-05T05:13:13.871Z,9.30
2022-10-05T05:15:46.613Z,9.30
2022-10-05T05:18:26.095Z,9.30
2022-10-05T05:21:17.223Z,9.40
2022-10-05T05:23:53.709Z,9.30
2022-10-05T05:26:38.763Z,9.60
2022-10-05T05:29:45.791Z,9.40
2022-10-05T05:32:33.429Z,9.50
2022-10-05T05:35:22.589Z,9.50
2022-10-05T05:38:07.701Z,9.60
2022-10-05T05:40:56.866Z,9.60
2022-10-05T05:43:57.798Z,9.60
2022-10-05T05:47:02.179Z,9.60
2022-10-05T05:49:51.230Z,9.70
2022-10-05T05:52:38.291Z,9.70
2022-10-05T05:55:19.685Z,9.80
2022-10-05T05:57:56.474Z,9.80
2022-10-05T06:00:42.714Z,9.90
2022-10-05T06:03:20.980Z,9.90
2022-10-05T06:05:54.370Z,10.00
2022-10-05T06:08:28.933Z,10.10
2022-10-05T06:11:10.218Z,10.20
2022-10-05T06:13:42.208Z,10.30
2022-10-05T06:16:33.727Z,10.50
2022-10-05T06:19:13.226Z,10.70
2022-10-05T06:21:45.119Z,10.90
2022-10-05T06:24:26.770Z,11.10
2022-10-05T06:27:39.540Z,11.30
2022-10-05T06:30:13.551Z,11.40
2022-10-05T06:32:50.362Z,11.40
2022-10-05T06:35:36.624Z,11.40
2022-10-05T06:38:52.670Z,11.40
2022-10-05T06:41:50.291Z,11.50
2022-10-05T06:44:37.646Z,11.70
2022-10-05T06:48:02.827Z,12.00
2022-10-05T06:50:54.119Z,12.20
2022-10-05T06:53:49.680Z,12.30
2022-10-05T06:56:24.136Z,12.60
2022-10-05T06:59:05.004Z,12.80
2022-10-05T07:01:58.201Z,12.80
2022-10-05T07:04:39.319Z,12.90
2022-10-05T07:07:35.919Z,12.90
2022-10-05T07:10:55.151Z,12.90
2022-10-05T07:30:20.835Z,13.30
2022-10-05T07:34:00.258Z,13.60
2022-10-05T08:11:34.805Z,15.00
2022-10-05T08:43:32.920Z,15.30
2022-10-05T08:46:56.942Z,15.20
2022-10-05T08:50:22.058Z,15.30
2022-10-05T08:54:33.030Z,15.60
2022-10-05T08:57:29.048Z,16.10
2022-10-05T09:00:03.482Z,16.40
2022-10-05T09:03:16.186Z,16.60
2022-10-05T09:06:02.699Z,16.90
2022-10-05T09:08:58.751Z,17.00
2022-10-05T09:11:53.384Z,17.10
2022-10-05T09:15:27.118Z,16.90
2022-10-05T09:18:15.099Z,16.80
2022-10-05T09:20:59.111Z,16.70
2022-10-05T09:23:42.867Z,16.80
2022-10-05T09:26:10.329Z,16.80
2022-10-05T09:29:15.072Z,16.90
2022-10-05T09:31:57.273Z,16.90
2022-10-05T09:34:59.039Z,16.80
2022-10-05T09:37:59.677Z,16.70
2022-10-05T09:40:59.715Z,16.70
2022-10-05T09:43:54.339Z,16.70
2022-10-05T09:46:45.942Z,16.70
2022-10-05T09:49:40.349Z,16.80
2022-10-05T09:52:23.472Z,16.90
2022-10-05T09:55:27.834Z,17.00
2022-10-05T09:58:00.387Z,17.10
2022-10-05T10:00:50.077Z,17.20
2022-10-05T10:04:00.025Z,17.30
2022-10-05T10:06:46.549Z,17.30
2022-10-05T10:09:19.866Z,17.40
2022-10-05T10:12:02.076Z,17.40
2022-10-05T10:15:03.141Z,17.40
2022-10-05T10:18:03.604Z,17.50
2022-10-05T10:20:43.149Z,17.70
2022-10-05T10:23:23.456Z,17.70
2022-10-05T10:26:08.566Z,17.90
2022-10-05T10:28:44.346Z,18.00
2022-10-05T10:31:49.820Z,18.20
2022-10-05T10:34:17.171Z,18.30
2022-10-05T10:37:02.244Z,18.40
2022-10-05T10:39:29.435Z,18.40
2022-10-05T10:41:59.597Z,18.40
2022-10-05T10:45:11.148Z,18.40
2022-10-05T10:47:47.131Z,18.40
2022-10-05T10:50:33.949Z,18.30
2022-10-05T10:53:19.818Z,18.30
2022-10-05T10:56:22.536Z,18.30
2022-10-05T10:59:20.192Z,18.30
2022-10-05T11:02:38.557Z,18.40
2022-10-05T11:05:38.721Z,18.40
2022-10-05T11:08:46.498Z,18.30
2022-10-05T11:11:36.251Z,18.40
2022-10-05T11:14:35.611Z,18.50
2022-10-05T11:17:25.744Z,18.50
2022-10-05T11:20:09.434Z,18.60
2022-10-05T11:22:55.487Z,18.70
2022-10-05T11:25:44.241Z,18.60
2022-10-05T11:28:29.414Z,18.70
2022-10-05T11:31:08.012Z,18.80
2022-10-05T11:33:38.229Z,18.90
2022-10-05T11:36:20.274Z,18.90
2022-10-05T11:39:10.191Z,18.90
2022-10-05T11:42:05.888Z,18.90
2022-10-05T11:44:54.890Z,18.80
2022-10-05T11:47:37.808Z,18.80
2022-10-05T11:50:32.526Z,18.80
2022-10-05T11:53:13.843Z,18.80
2022-10-05T11:56:23.123Z,18.70
2022-10-05T11:59:26.533Z,18.70
2022-10-05T12:02:43.888Z,18.70
2022-10-05T12:05:43.315Z,18.70
2022-10-05T12:08:37.060Z,18.60
2022-10-05T12:11:04.093Z,18.50
2022-10-05T12:13:31.243Z,18.50
2022-10-05T12:16:04.780Z,18.40
2022-10-05T12:18:31.701Z,18.40
2022-10-05T12:21:04.825Z,18.40
2022-10-05T12:24:14.390Z,18.40
2022-10-05T12:26:53.061Z,18.40
2022-10-05T12:29:26.833Z,18.40
2022-10-05T12:32:21.907Z,18.40
2022-10-05T12:35:07.804Z,18.30
2022-10-05T12:38:05.156Z,18.30
2022-10-05T12:40:51.662Z,18.30
2022-10-05T12:43:34.785Z,18.30
2022-10-05T12:46:20.510Z,18.20
2022-10-05T12:49:01.857Z,18.20
2022-10-05T12:51:55.886Z,18.20
2022-10-05T12:54:54.228Z,18.10
2022-10-05T12:58:05.507Z,18.00
2022-10-05T13:00:38.431Z,18.00
2022-10-05T13:03:17.905Z,18.00
2022-10-05T13:06:08.006Z,18.00
2022-10-05T13:08:59.455Z,18.00
2022-10-05T13:11:47.888Z,18.00
2022-10-05T13:14:47.285Z,17.90
2022-10-05T13:17:33.711Z,17.80
2022-10-05T13:20:12.312Z,17.70
2022-10-05T13:22:45.055Z,17.60
2022-10-05T13:25:32.665Z,17.70
2022-10-05T13:28:10.618Z,17.60
2022-10-05T13:30:41.499Z,17.50
2022-10-05T13:33:21.940Z,17.50
2022-10-05T13:36:02.061Z,17.50
2022-10-05T13:38:53.314Z,17.40
2022-10-05T13:41:35.946Z,17.40
2022-10-05T13:44:23.421Z,17.40
2022-10-05T13:47:05.726Z,17.30
2022-10-05T13:49:49.316Z,17.20
2022-10-05T13:52:42.197Z,17.20
2022-10-05T13:55:34.702Z,17.10
2022-10-05T13:58:13.891Z,16.90
2022-10-05T14:00:50.098Z,16.80
2022-10-05T14:03:37.474Z,16.70
2022-10-05T14:06:32.593Z,16.70
2022-10-05T14:09:00.016Z,16.70
2022-10-05T14:11:32.516Z,16.60
2022-10-05T14:14:26.521Z,16.60
2022-10-05T14:17:00.198Z,16.60
2022-10-05T14:19:32.441Z,16.50
2022-10-05T14:22:11.960Z,16.60
2022-10-05T14:25:10.526Z,16.60
2022-10-05T14:28:10.248Z,16.60
2022-10-05T14:30:37.609Z,16.60
2022-10-05T14:33:07.121Z,16.50
2022-10-05T14:35:50.628Z,16.50
2022-10-05T14:38:19.249Z,16.40
2022-10-05T14:41:01.924Z,16.40
2022-10-05T14:43:29.852Z,16.40
2022-10-05T14:45:59.471Z,16.30
2022-10-05T14:48:29.498Z,16.30
2022-10-05T14:50:59.564Z,16.20
2022-10-05T14:53:40.124Z,16.20
2022-10-05T14:56:33.158Z,16.10
2022-10-05T14:59:04.268Z,16.00
2022-10-05T15:01:35.888Z,16.00
2022-10-05T15:04:31.915Z,15.90
2022-10-05T15:07:27.417Z,15.80
2022-10-05T15:10:06.412Z,15.70
2022-10-05T15:12:48.201Z,15.60
2022-10-05T15:15:39.684Z,15.60
2022-10-05T15:18:27.226Z,15.50
2022-10-05T15:21:12.060Z,15.50
2022-10-05T15:24:11.876Z,15.50
2022-10-05T15:27:01.131Z,15.40
2022-10-05T15:30:03.275Z,15.30
2022-10-05T15:32:45.804Z,15.30
2022-10-05T15:35:42.346Z,15.30
2022-10-05T15:38:21.308Z,15.20
2022-10-05T15:41:14.806Z,15.20
2022-10-05T15:43:50.677Z,15.10
2022-10-05T15:46:41.415Z,15.10
2022-10-05T15:49:57.265Z,15.00
2022-10-05T15:52:56.260Z,15.00
2022-10-05T15:55:38.385Z,14.90
2022-10-05T15:58:31.301Z,14.90
2022-10-05T16:01:11.528Z,14.80
2022-10-05T16:03:53.856Z,14.80
2022-10-05T16:07:05.499Z,14.70
2022-10-05T16:10:03.311Z,14.60
2022-10-05T16:12:53.079Z,14.50
2022-10-05T16:15:36.042Z,14.40
2022-10-05T16:18:47.916Z,14.40
2022-10-05T16:21:30.870Z,14.30
2022-10-05T16:24:21.232Z,14.30
2022-10-05T16:27:28.887Z,14.30
2022-10-05T16:30:04.995Z,14.20
2022-10-05T16:32:46.780Z,14.20
2022-10-05T16:35:59.509Z,14.20
2022-10-05T16:38:40.438Z,14.20
2022-10-05T16:41:27.430Z,14.10
2022-10-05T16:44:15.535Z,14.10
2022-10-05T16:47:11.765Z,14.10
2022-10-05T16:50:08.115Z,14.10
2022-10-05T16:52:40.569Z,14.00
2022-10-05T16:55:20.042Z,14.00
2022-10-05T16:57:55.695Z,14.00
2022-10-05T17:00:56.031Z,14.00
2022-10-05T17:03:57.145Z,13.90
2022-10-05T17:06:30.123Z,13.90
2022-10-05T17:09:25.486Z,13.90
2022-10-05T17:12:20.285Z,13.80
2022-10-05T17:14:53.145Z,13.80
2022-10-05T17:17:49.153Z,13.80
2022-10-05T17:20:40.186Z,13.80
2022-10-05T17:23:29.356Z,13.80
2022-10-05T17:26:22.906Z,13.80
2022-10-05T17:29:08.918Z,13.80
2022-10-05T17:31:59.902Z,13.70
2022-10-05T17:34:34.837Z,13.70
2022-10-05T17:37:38.019Z,13.70
2022-10-05T17:40:35.024Z,13.60
2022-10-05T17:43:24.591Z,13.60
2022-10-05T17:45:57.985Z,13.60
2022-10-05T17:48:44.113Z,13.50
2022-10-05T17:51:48.499Z,13.50
2022-10-05T17:54:49.106Z,13.50
2022-10-05T17:57:21.432Z,13.40
2022-10-05T17:59:57.291Z,13.40
2022-10-05T18:02:36.802Z,13.30
2022-10-05T18:05:05.049Z,13.30
2022-10-05T18:07:36.646Z,13.30
2022-10-05T18:10:14.810Z,13.20
2022-10-05T18:13:18.093Z,13.20
2022-10-05T18:15:48.766Z,13.20
2022-10-05T18:18:44.835Z,13.10
2022-10-05T18:21:14.833Z,13.10
2022-10-05T18:24:02.286Z,13.10
2022-10-05T18:27:11.182Z,13.00
2022-10-05T18:30:04.944Z,13.00
2022-10-05T18:32:49.983Z,12.90
2022-10-05T18:35:23.117Z,12.90
2022-10-05T18:38:17.589Z,12.90
2022-10-05T18:41:03.723Z,12.90
2022-10-05T18:43:35.965Z,12.80
2022-10-05T18:46:15.097Z,12.80
2022-10-05T18:49:03.864Z,12.70
2022-10-05T18:51:52.810Z,12.70
2022-10-05T18:54:57.276Z,12.60
2022-10-05T18:57:40.671Z,12.60
2022-10-05T19:00:15.299Z,12.60
2022-10-05T19:03:11.090Z,12.50
2022-10-05T19:05:50.128Z,12.50
2022-10-05T19:08:31.046Z,12.50
2022-10-05T19:11:17.987Z,12.50
2022-10-05T19:13:51.206Z,12.40
2022-10-05T19:16:38.601Z,12.40
2022-10-05T19:19:30.701Z,12.40
2022-10-05T19:22:31.256Z,12.30
2022-10-05T19:25:05.315Z,12.30
2022-10-05T19:27:55.509Z,12.20
2022-10-05T19:30:43.970Z,12.20
2022-10-05T19:33:36.045Z,12.10
2022-10-05T19:36:40.280Z,12.10
2022-10-05T19:39:12.857Z,12.00
2022-10-05T19:41:40.814Z,12.00
2022-10-05T19:44:35.350Z,11.90
2022-10-05T19:47:14.923Z,11.90
2022-10-05T19:49:55.348Z,11.90
2022-10-05T19:52:25.222Z,11.80
2022-10-05T19:55:20.050Z,11.80
2022-10-05T19:57:49.613Z,11.80
2022-10-05T20:00:31.416Z,11.70
2022-10-05T20:03:18.876Z,11.70
2022-10-05T20:05:46.330Z,11.70
2022-10-05T20:08:18.794Z,11.70
2022-10-05T20:11:13.487Z,11.70
2022-10-05T20:13:46.775Z,11.70
2022-10-05T20:16:57.557Z,11.60
2022-10-05T20:19:50.711Z,11.60
2022-10-05T20:22:39.580Z,11.60
2022-10-05T20:25:28.797Z,11.60
2022-10-05T20:27:57.439Z,11.60
2022-10-05T20:30:29.001Z,11.60
2022-10-05T20:33:01.604Z,11.50
2022-10-05T20:35:30.831Z,11.50
2022-10-05T20:38:00.268Z,11.50
2022-10-05T20:40:29.282Z,11.50
2022-10-05T20:42:57.762Z,11.50
2022-10-05T20:45:25.153Z,11.50
2022-10-05T20:47:52.473Z,11.50
2022-10-05T20:50:21.107Z,11.40
2022-10-05T20:52:48.340Z,11.40
2022-10-05T20:55:18.510Z,11.40
2022-10-05T20:57:46.209Z,11.40
2022-10-05T21:00:13.955Z,11.50
2022-10-05T21:02:40.971Z,11.30
2022-10-05T21:05:08.992Z,11.30
2022-10-05T21:07:36.023Z,11.30
2022-10-05T21:10:03.942Z,11.30
2022-10-05T21:12:34.015Z,11.30
2022-10-05T21:15:01.590Z,11.30
2022-10-05T21:17:28.599Z,11.30
2022-10-05T21:19:55.860Z,11.30
2022-10-05T21:22:22.866Z,11.30
2022-10-05T21:24:49.977Z,11.30
2022-10-05T21:27:17.327Z,11.30
2022-10-05T21:29:45.374Z,11.30
2022-10-05T21:32:12.406Z,11.30
2022-10-05T21:34:40.990Z,11.30
2022-10-05T21:37:09.000Z,11.30
2022-10-05T21:39:36.750Z,11.30
2022-10-05T21:42:04.462Z,11.30
2022-10-05T21:44:31.413Z,11.30
2022-10-05T21:46:58.529Z,11.30
2022-10-05T21:49:27.071Z,11.30
2022-10-05T21:51:54.352Z,11.30
2022-10-05T21:54:22.661Z,11.00
2022-10-05T21:56:52.577Z,11.30
2022-10-05T21:59:22.540Z,11.30
2022-10-05T22:01:49.622Z,11.20
2022-10-05T22:04:17.117Z,11.20
2022-10-05T22:06:44.262Z,11.20
2022-10-05T22:09:12.101Z,11.20
2022-10-05T22:11:39.450Z,11.20
2022-10-05T22:14:06.673Z,11.20
2022-10-05T22:16:38.165Z,11.20
2022-10-05T22:19:10.612Z,11.10
2022-10-05T22:21:41.550Z,11.10
2022-10-05T22:24:11.463Z,11.20
2022-10-05T22:26:40.192Z,11.10
2022-10-05T22:29:07.296Z,11.10
2022-10-05T22:31:34.665Z,11.10
2022-10-05T22:34:01.953Z,11.10
2022-10-05T22:36:29.215Z,11.10
2022-10-05T22:38:56.450Z,11.00
2022-10-05T22:41:23.655Z,11.00
2022-10-05T22:43:51.335Z,11.00
2022-10-05T22:46:18.739Z,11.00
2022-10-05T22:48:45.961Z,11.00
2022-10-05T22:51:12.951Z,11.00
2022-10-05T22:53:40.337Z,11.00
2022-10-05T22:56:13.181Z,11.00
2022-10-05T22:58:41.557Z,11.10
2022-10-05T23:01:12.184Z,11.10
2022-10-05T23:03:39.276Z,11.00
2022-10-05T23:06:12.233Z,11.00
2022-10-05T23:08:40.934Z,11.00
2022-10-05T23:11:21.297Z,11.00
2022-10-05T23:13:48.608Z,11.00
2022-10-05T23:16:18.559Z,10.90
2022-10-05T23:18:49.063Z,10.90
2022-10-05T23:21:17.151Z,10.90
2022-10-05T23:23:47.444Z,10.90
2022-10-05T23:26:16.023Z,10.90
2022-10-05T23:28:46.627Z,10.90
2022-10-05T23:31:19.583Z,10.80
2022-10-05T23:33:47.066Z,10.80
2022-10-05T23:36:19.351Z,10.80
2022-10-05T23:38:46.866Z,10.80
2022-10-05T23:41:16.011Z,10.80
2022-10-05T23:43:43.723Z,10.80
2022-10-05T23:46:11.777Z,10.80
2022-10-05T23:48:39.383Z,10.70
2022-10-05T23:51:07.919Z,10.70
2022-10-05T23:53:35.247Z,10.70
2022-10-05T23:56:02.513Z,10.70
2022-10-05T23:58:30.038Z,10.70
